sensor_id;sensor_type;location;lat;lon;timestamp;P1;durP1;ratioP1;P2;durP2;ratioP2
45540;SDS011;31265;49.680;8.608;2023-08-20T00:01:01;5.70;;;2.13;;
45540;SDS011;31265;49.680;8.608;2023-08-20T00:05:59;4.65;;;2.15;;
45540;SDS011;31265;49.680;8.608;2023-08-20T00:08:29;3.50;;;1.67;;
45540;SDS011;31265;49.680;8.608;2023-08-20T00:10:57;3.22;;;1.58;;
45540;SDS011;31265;49.680;8.608;2023-08-20T00:13:28;3.78;;;1.52;;
45540;SDS011;31265;49.680;8.608;2023-08-20T00:15:56;4.55;;;2.05;;
45540;SDS011;31265;49.680;8.608;2023-08-20T00:18:32;4.45;;;1.80;;
45540;SDS011;31265;49.680;8.608;2023-08-20T00:21:05;3.05;;;1.77;;
45540;SDS011;31265;49.680;8.608;2023-08-20T00:23:35;3.25;;;1.83;;
45540;SDS011;31265;49.680;8.608;2023-08-20T00:26:04;3.80;;;2.25;;
45540;SDS011;31265;49.680;8.608;2023-08-20T00:28:34;4.63;;;1.90;;
45540;SDS011;31265;49.680;8.608;2023-08-20T00:31:05;5.00;;;2.50;;
45540;SDS011;31265;49.680;8.608;2023-08-20T00:33:34;4.45;;;2.17;;
45540;SDS011;31265;49.680;8.608;2023-08-20T00:36:04;3.25;;;1.88;;
45540;SDS011;31265;49.680;8.608;2023-08-20T00:38:33;5.00;;;2.17;;
45540;SDS011;31265;49.680;8.608;2023-08-20T00:41:01;5.18;;;2.22;;
45540;SDS011;31265;49.680;8.608;2023-08-20T00:43:30;4.37;;;2.33;;
45540;SDS011;31265;49.680;8.608;2023-08-20T00:46:00;4.35;;;2.08;;
45540;SDS011;31265;49.680;8.608;2023-08-20T00:48:29;4.90;;;2.22;;
45540;SDS011;31265;49.680;8.608;2023-08-20T00:50:58;3.42;;;1.92;;
45540;SDS011;31265;49.680;8.608;2023-08-20T00:53:27;2.75;;;1.65;;
45540;SDS011;31265;49.680;8.608;2023-08-20T00:55:56;7.03;;;2.33;;
45540;SDS011;31265;49.680;8.608;2023-08-20T00:58:24;4.97;;;2.72;;
45540;SDS011;31265;49.680;8.608;2023-08-20T01:00:56;3.85;;;2.25;;
45540;SDS011;31265;49.680;8.608;2023-08-20T01:03:27;4.60;;;2.10;;
45540;SDS011;31265;49.680;8.608;2023-08-20T01:05:58;4.68;;;1.92;;
45540;SDS011;31265;49.680;8.608;2023-08-20T01:08:37;3.40;;;1.83;;
45540;SDS011;31265;49.680;8.608;2023-08-20T01:11:10;4.00;;;2.50;;
45540;SDS011;31265;49.680;8.608;2023-08-20T01:13:45;5.47;;;2.40;;
45540;SDS011;31265;49.680;8.608;2023-08-20T01:16:13;3.33;;;2.00;;
45540;SDS011;31265;49.680;8.608;2023-08-20T01:18:43;6.28;;;2.33;;
45540;SDS011;31265;49.680;8.608;2023-08-20T01:21:25;6.82;;;2.70;;
45540;SDS011;31265;49.680;8.608;2023-08-20T01:24:10;4.45;;;2.38;;
45540;SDS011;31265;49.680;8.608;2023-08-20T01:26:58;4.43;;;2.25;;
45540;SDS011;31265;49.680;8.608;2023-08-20T01:29:38;5.00;;;2.20;;
45540;SDS011;31265;49.680;8.608;2023-08-20T01:32:07;3.38;;;1.98;;
45540;SDS011;31265;49.680;8.608;2023-08-20T01:34:37;4.85;;;2.15;;
45540;SDS011;31265;49.680;8.608;2023-08-20T01:37:06;4.32;;;2.30;;
45540;SDS011;31265;49.680;8.608;2023-08-20T01:39:35;3.58;;;2.13;;
45540;SDS011;31265;49.680;8.608;2023-08-20T01:42:04;4.40;;;2.47;;
45540;SDS011;31265;49.680;8.608;2023-08-20T01:44:33;4.43;;;2.30;;
45540;SDS011;31265;49.680;8.608;2023-08-20T01:47:03;10.43;;;2.75;;
45540;SDS011;31265;49.680;8.608;2023-08-20T01:49:31;4.85;;;2.83;;
45540;SDS011;31265;49.680;8.608;2023-08-20T01:52:00;4.18;;;2.40;;
45540;SDS011;31265;49.680;8.608;2023-08-20T01:54:28;6.18;;;2.60;;
45540;SDS011;31265;49.680;8.608;2023-08-20T01:56:57;4.38;;;2.60;;
45540;SDS011;31265;49.680;8.608;2023-08-20T01:59:26;4.63;;;2.25;;
45540;SDS011;31265;49.680;8.608;2023-08-20T02:01:54;5.47;;;2.47;;
45540;SDS011;31265;49.680;8.608;2023-08-20T02:04:24;4.13;;;2.63;;
45540;SDS011;31265;49.680;8.608;2023-08-20T02:06:52;4.03;;;2.63;;
45540;SDS011;31265;49.680;8.608;2023-08-20T02:09:21;4.32;;;2.42;;
45540;SDS011;31265;49.680;8.608;2023-08-20T02:11:49;3.77;;;2.40;;
45540;SDS011;31265;49.680;8.608;2023-08-20T02:14:20;4.82;;;2.13;;
45540;SDS011;31265;49.680;8.608;2023-08-20T02:16:49;3.83;;;2.25;;
45540;SDS011;31265;49.680;8.608;2023-08-20T02:19:21;9.20;;;3.47;;
45540;SDS011;31265;49.680;8.608;2023-08-20T02:21:51;8.73;;;2.83;;
45540;SDS011;31265;49.680;8.608;2023-08-20T02:24:22;6.45;;;2.67;;
45540;SDS011;31265;49.680;8.608;2023-08-20T02:26:50;5.63;;;2.70;;
45540;SDS011;31265;49.680;8.608;2023-08-20T02:29:19;4.32;;;2.15;;
45540;SDS011;31265;49.680;8.608;2023-08-20T02:31:47;4.28;;;2.72;;
45540;SDS011;31265;49.680;8.608;2023-08-20T02:34:18;5.68;;;2.90;;
45540;SDS011;31265;49.680;8.608;2023-08-20T02:36:48;7.63;;;2.80;;
45540;SDS011;31265;49.680;8.608;2023-08-20T02:39:21;4.60;;;2.90;;
45540;SDS011;31265;49.680;8.608;2023-08-20T02:41:51;4.28;;;2.75;;
45540;SDS011;31265;49.680;8.608;2023-08-20T02:44:25;4.57;;;2.50;;
45540;SDS011;31265;49.680;8.608;2023-08-20T02:46:54;5.43;;;3.47;;
45540;SDS011;31265;49.680;8.608;2023-08-20T02:49:23;5.53;;;2.95;;
45540;SDS011;31265;49.680;8.608;2023-08-20T02:51:51;6.82;;;3.13;;
45540;SDS011;31265;49.680;8.608;2023-08-20T02:54:21;8.60;;;2.63;;
45540;SDS011;31265;49.680;8.608;2023-08-20T02:59:21;4.65;;;2.72;;
45540;SDS011;31265;49.680;8.608;2023-08-20T03:01:49;4.63;;;2.63;;
45540;SDS011;31265;49.680;8.608;2023-08-20T03:04:21;6.22;;;3.00;;
45540;SDS011;31265;49.680;8.608;2023-08-20T03:06:50;5.93;;;2.70;;
45540;SDS011;31265;49.680;8.608;2023-08-20T03:09:18;7.65;;;3.80;;
45540;SDS011;31265;49.680;8.608;2023-08-20T03:11:48;3.85;;;2.40;;
45540;SDS011;31265;49.680;8.608;2023-08-20T03:14:22;6.15;;;3.67;;
45540;SDS011;31265;49.680;8.608;2023-08-20T03:16:54;7.10;;;3.25;;
45540;SDS011;31265;49.680;8.608;2023-08-20T03:19:23;6.20;;;3.10;;
45540;SDS011;31265;49.680;8.608;2023-08-20T03:21:51;6.28;;;3.17;;
45540;SDS011;31265;49.680;8.608;2023-08-20T03:24:20;4.63;;;3.08;;
45540;SDS011;31265;49.680;8.608;2023-08-20T03:26:50;4.85;;;2.47;;
45540;SDS011;31265;49.680;8.608;2023-08-20T03:29:19;6.00;;;2.75;;
45540;SDS011;31265;49.680;8.608;2023-08-20T03:31:47;4.85;;;2.47;;
45540;SDS011;31265;49.680;8.608;2023-08-20T03:34:16;8.37;;;3.13;;
45540;SDS011;31265;49.680;8.608;2023-08-20T03:36:44;4.63;;;2.92;;
45540;SDS011;31265;49.680;8.608;2023-08-20T03:39:12;7.53;;;2.88;;
45540;SDS011;31265;49.680;8.608;2023-08-20T03:41:44;6.05;;;3.13;;
45540;SDS011;31265;49.680;8.608;2023-08-20T03:44:19;4.68;;;2.67;;
45540;SDS011;31265;49.680;8.608;2023-08-20T03:46:49;5.97;;;3.22;;
45540;SDS011;31265;49.680;8.608;2023-08-20T03:49:19;5.65;;;3.10;;
45540;SDS011;31265;49.680;8.608;2023-08-20T03:51:49;5.57;;;2.95;;
45540;SDS011;31265;49.680;8.608;2023-08-20T03:54:18;6.03;;;3.33;;
45540;SDS011;31265;49.680;8.608;2023-08-20T03:56:49;9.35;;;2.97;;
45540;SDS011;31265;49.680;8.608;2023-08-20T03:59:24;5.15;;;3.03;;
45540;SDS011;31265;49.680;8.608;2023-08-20T04:01:53;5.55;;;2.60;;
45540;SDS011;31265;49.680;8.608;2023-08-20T04:04:21;5.15;;;2.60;;
45540;SDS011;31265;49.680;8.608;2023-08-20T04:06:50;4.55;;;2.80;;
45540;SDS011;31265;49.680;8.608;2023-08-20T04:09:18;5.88;;;2.80;;
45540;SDS011;31265;49.680;8.608;2023-08-20T04:11:46;5.00;;;2.88;;
45540;SDS011;31265;49.680;8.608;2023-08-20T04:14:14;6.47;;;2.97;;
45540;SDS011;31265;49.680;8.608;2023-08-20T04:16:45;4.43;;;2.63;;
45540;SDS011;31265;49.680;8.608;2023-08-20T04:19:17;5.22;;;2.97;;
45540;SDS011;31265;49.680;8.608;2023-08-20T04:21:45;6.05;;;3.33;;
45540;SDS011;31265;49.680;8.608;2023-08-20T04:24:18;5.70;;;3.17;;
45540;SDS011;31265;49.680;8.608;2023-08-20T04:26:46;6.10;;;3.45;;
45540;SDS011;31265;49.680;8.608;2023-08-20T04:29:20;5.40;;;3.28;;
45540;SDS011;31265;49.680;8.608;2023-08-20T04:31:52;5.45;;;3.00;;
45540;SDS011;31265;49.680;8.608;2023-08-20T04:34:21;7.43;;;3.53;;
45540;SDS011;31265;49.680;8.608;2023-08-20T04:36:52;4.43;;;2.85;;
45540;SDS011;31265;49.680;8.608;2023-08-20T04:41:53;7.43;;;3.80;;
45540;SDS011;31265;49.680;8.608;2023-08-20T04:44:25;5.97;;;3.55;;
45540;SDS011;31265;49.680;8.608;2023-08-20T04:46:56;6.03;;;3.42;;
45540;SDS011;31265;49.680;8.608;2023-08-20T04:49:25;6.28;;;3.38;;
45540;SDS011;31265;49.680;8.608;2023-08-20T04:52:04;6.60;;;3.70;;
45540;SDS011;31265;49.680;8.608;2023-08-20T04:54:40;7.22;;;4.10;;
45540;SDS011;31265;49.680;8.608;2023-08-20T04:57:14;5.43;;;3.15;;
45540;SDS011;31265;49.680;8.608;2023-08-20T04:59:43;8.90;;;3.78;;
45540;SDS011;31265;49.680;8.608;2023-08-20T05:02:30;6.72;;;3.75;;
45540;SDS011;31265;49.680;8.608;2023-08-20T05:05:06;8.70;;;3.20;;
45540;SDS011;31265;49.680;8.608;2023-08-20T05:07:38;7.05;;;4.03;;
45540;SDS011;31265;49.680;8.608;2023-08-20T05:10:07;6.53;;;3.80;;
45540;SDS011;31265;49.680;8.608;2023-08-20T05:12:38;5.70;;;3.25;;
45540;SDS011;31265;49.680;8.608;2023-08-20T05:15:08;4.88;;;2.97;;
45540;SDS011;31265;49.680;8.608;2023-08-20T05:17:38;6.18;;;3.60;;
45540;SDS011;31265;49.680;8.608;2023-08-20T05:20:07;6.78;;;3.08;;
45540;SDS011;31265;49.680;8.608;2023-08-20T05:22:37;5.57;;;3.70;;
45540;SDS011;31265;49.680;8.608;2023-08-20T05:25:08;8.20;;;3.80;;
45540;SDS011;31265;49.680;8.608;2023-08-20T05:27:37;6.40;;;3.65;;
45540;SDS011;31265;49.680;8.608;2023-08-20T05:30:07;5.10;;;3.70;;
45540;SDS011;31265;49.680;8.608;2023-08-20T05:35:07;7.47;;;3.58;;
45540;SDS011;31265;49.680;8.608;2023-08-20T05:37:37;5.45;;;3.67;;
45540;SDS011;31265;49.680;8.608;2023-08-20T05:40:08;6.50;;;3.60;;
45540;SDS011;31265;49.680;8.608;2023-08-20T05:42:38;5.53;;;3.05;;
45540;SDS011;31265;49.680;8.608;2023-08-20T05:45:07;5.95;;;3.60;;
45540;SDS011;31265;49.680;8.608;2023-08-20T05:47:40;8.35;;;3.20;;
45540;SDS011;31265;49.680;8.608;2023-08-20T05:50:11;5.90;;;3.55;;
45540;SDS011;31265;49.680;8.608;2023-08-20T05:52:42;10.52;;;3.92;;
45540;SDS011;31265;49.680;8.608;2023-08-20T05:55:13;8.35;;;3.47;;
45540;SDS011;31265;49.680;8.608;2023-08-20T05:57:45;7.30;;;3.35;;
45540;SDS011;31265;49.680;8.608;2023-08-20T06:00:14;7.50;;;3.72;;
45540;SDS011;31265;49.680;8.608;2023-08-20T06:02:46;6.93;;;4.40;;
45540;SDS011;31265;49.680;8.608;2023-08-20T06:05:17;12.23;;;4.60;;
45540;SDS011;31265;49.680;8.608;2023-08-20T06:07:45;6.60;;;3.70;;
45540;SDS011;31265;49.680;8.608;2023-08-20T06:10:14;5.55;;;3.00;;
45540;SDS011;31265;49.680;8.608;2023-08-20T06:12:47;5.10;;;3.35;;
45540;SDS011;31265;49.680;8.608;2023-08-20T06:17:44;6.55;;;2.97;;
45540;SDS011;31265;49.680;8.608;2023-08-20T06:20:14;6.05;;;3.35;;
45540;SDS011;31265;49.680;8.608;2023-08-20T06:22:47;6.18;;;3.60;;
45540;SDS011;31265;49.680;8.608;2023-08-20T06:25:15;7.40;;;3.72;;
45540;SDS011;31265;49.680;8.608;2023-08-20T06:27:47;7.57;;;3.40;;
45540;SDS011;31265;49.680;8.608;2023-08-20T06:30:15;6.47;;;3.67;;
45540;SDS011;31265;49.680;8.608;2023-08-20T06:32:44;9.10;;;3.10;;
45540;SDS011;31265;49.680;8.608;2023-08-20T06:35:12;5.43;;;2.92;;
45540;SDS011;31265;49.680;8.608;2023-08-20T06:37:48;5.35;;;3.20;;
45540;SDS011;31265;49.680;8.608;2023-08-20T06:40:16;6.22;;;3.67;;
45540;SDS011;31265;49.680;8.608;2023-08-20T06:42:45;4.43;;;2.90;;
45540;SDS011;31265;49.680;8.608;2023-08-20T06:45:16;6.97;;;3.55;;
45540;SDS011;31265;49.680;8.608;2023-08-20T06:47:47;5.55;;;3.53;;
45540;SDS011;31265;49.680;8.608;2023-08-20T06:50:15;5.80;;;3.10;;
45540;SDS011;31265;49.680;8.608;2023-08-20T06:52:44;4.10;;;2.60;;
45540;SDS011;31265;49.680;8.608;2023-08-20T06:55:13;6.75;;;3.03;;
45540;SDS011;31265;49.680;8.608;2023-08-20T06:57:45;5.63;;;2.88;;
45540;SDS011;31265;49.680;8.608;2023-08-20T07:00:16;5.68;;;3.03;;
45540;SDS011;31265;49.680;8.608;2023-08-20T07:02:49;5.82;;;3.25;;
45540;SDS011;31265;49.680;8.608;2023-08-20T07:05:17;6.60;;;3.22;;
45540;SDS011;31265;49.680;8.608;2023-08-20T07:07:45;8.98;;;3.40;;
45540;SDS011;31265;49.680;8.608;2023-08-20T07:10:20;6.80;;;3.10;;
45540;SDS011;31265;49.680;8.608;2023-08-20T07:12:51;5.57;;;3.00;;
45540;SDS011;31265;49.680;8.608;2023-08-20T07:15:19;7.25;;;3.42;;
45540;SDS011;31265;49.680;8.608;2023-08-20T07:18:00;4.15;;;2.58;;
45540;SDS011;31265;49.680;8.608;2023-08-20T07:20:28;3.90;;;2.40;;
45540;SDS011;31265;49.680;8.608;2023-08-20T07:23:00;5.80;;;3.05;;
45540;SDS011;31265;49.680;8.608;2023-08-20T07:25:32;6.53;;;2.90;;
45540;SDS011;31265;49.680;8.608;2023-08-20T07:28:00;6.70;;;2.92;;
45540;SDS011;31265;49.680;8.608;2023-08-20T07:30:31;3.63;;;2.30;;
45540;SDS011;31265;49.680;8.608;2023-08-20T07:33:02;6.30;;;3.33;;
45540;SDS011;31265;49.680;8.608;2023-08-20T07:35:32;7.40;;;3.00;;
45540;SDS011;31265;49.680;8.608;2023-08-20T07:38:02;5.20;;;2.85;;
45540;SDS011;31265;49.680;8.608;2023-08-20T07:40:32;6.68;;;2.45;;
45540;SDS011;31265;49.680;8.608;2023-08-20T07:43:03;3.80;;;2.38;;
45540;SDS011;31265;49.680;8.608;2023-08-20T07:45:33;5.68;;;2.97;;
45540;SDS011;31265;49.680;8.608;2023-08-20T07:48:01;4.00;;;2.40;;
45540;SDS011;31265;49.680;8.608;2023-08-20T07:50:33;4.03;;;2.42;;
45540;SDS011;31265;49.680;8.608;2023-08-20T07:53:03;4.47;;;2.67;;
45540;SDS011;31265;49.680;8.608;2023-08-20T07:55:36;6.38;;;3.03;;
45540;SDS011;31265;49.680;8.608;2023-08-20T07:58:08;3.97;;;2.53;;
45540;SDS011;31265;49.680;8.608;2023-08-20T08:00:36;4.43;;;2.50;;
45540;SDS011;31265;49.680;8.608;2023-08-20T08:03:04;4.93;;;2.80;;
45540;SDS011;31265;49.680;8.608;2023-08-20T08:05:33;4.47;;;2.77;;
45540;SDS011;31265;49.680;8.608;2023-08-20T08:08:01;4.75;;;2.55;;
45540;SDS011;31265;49.680;8.608;2023-08-20T08:10:31;5.40;;;2.65;;
45540;SDS011;31265;49.680;8.608;2023-08-20T08:13:01;5.07;;;2.63;;
45540;SDS011;31265;49.680;8.608;2023-08-20T08:15:35;5.03;;;2.83;;
45540;SDS011;31265;49.680;8.608;2023-08-20T08:18:04;4.05;;;2.35;;
45540;SDS011;31265;49.680;8.608;2023-08-20T08:20:33;4.45;;;2.80;;
45540;SDS011;31265;49.680;8.608;2023-08-20T08:23:09;5.55;;;2.95;;
45540;SDS011;31265;49.680;8.608;2023-08-20T08:25:38;3.70;;;2.43;;
45540;SDS011;31265;49.680;8.608;2023-08-20T08:28:09;4.90;;;2.05;;
45540;SDS011;31265;49.680;8.608;2023-08-20T08:30:40;3.50;;;2.15;;
45540;SDS011;31265;49.680;8.608;2023-08-20T08:33:11;4.43;;;2.05;;
45540;SDS011;31265;49.680;8.608;2023-08-20T08:35:39;3.93;;;2.30;;
45540;SDS011;31265;49.680;8.608;2023-08-20T08:38:07;4.27;;;2.53;;
45540;SDS011;31265;49.680;8.608;2023-08-20T08:40:36;4.40;;;2.63;;
45540;SDS011;31265;49.680;8.608;2023-08-20T08:43:05;6.82;;;2.47;;
45540;SDS011;31265;49.680;8.608;2023-08-20T08:45:38;4.63;;;2.20;;
45540;SDS011;31265;49.680;8.608;2023-08-20T08:48:07;3.10;;;1.98;;
45540;SDS011;31265;49.680;8.608;2023-08-20T08:53:04;3.67;;;2.15;;
45540;SDS011;31265;49.680;8.608;2023-08-20T08:55:34;4.15;;;2.50;;
45540;SDS011;31265;49.680;8.608;2023-08-20T08:58:05;3.75;;;2.10;;
45540;SDS011;31265;49.680;8.608;2023-08-20T09:00:42;4.65;;;2.10;;
45540;SDS011;31265;49.680;8.608;2023-08-20T09:03:10;3.92;;;2.42;;
45540;SDS011;31265;49.680;8.608;2023-08-20T09:08:21;4.07;;;2.08;;
45540;SDS011;31265;49.680;8.608;2023-08-20T09:10:51;4.65;;;2.17;;
45540;SDS011;31265;49.680;8.608;2023-08-20T09:13:22;5.53;;;2.45;;
45540;SDS011;31265;49.680;8.608;2023-08-20T09:15:53;3.58;;;2.20;;
45540;SDS011;31265;49.680;8.608;2023-08-20T09:18:22;3.70;;;2.58;;
45540;SDS011;31265;49.680;8.608;2023-08-20T09:20:51;3.97;;;2.10;;
45540;SDS011;31265;49.680;8.608;2023-08-20T09:23:20;3.63;;;2.00;;
45540;SDS011;31265;49.680;8.608;2023-08-20T09:25:52;2.78;;;2.00;;
45540;SDS011;31265;49.680;8.608;2023-08-20T09:28:21;3.40;;;2.00;;
45540;SDS011;31265;49.680;8.608;2023-08-20T09:30:58;4.13;;;1.87;;
45540;SDS011;31265;49.680;8.608;2023-08-20T09:33:29;4.95;;;2.08;;
45540;SDS011;31265;49.680;8.608;2023-08-20T09:35:57;3.05;;;1.80;;
45540;SDS011;31265;49.680;8.608;2023-08-20T09:38:25;4.07;;;2.10;;
45540;SDS011;31265;49.680;8.608;2023-08-20T09:40:54;4.20;;;2.10;;
45540;SDS011;31265;49.680;8.608;2023-08-20T09:43:29;6.53;;;1.90;;
45540;SDS011;31265;49.680;8.608;2023-08-20T09:46:02;4.43;;;2.15;;
45540;SDS011;31265;49.680;8.608;2023-08-20T09:48:34;5.63;;;1.77;;
45540;SDS011;31265;49.680;8.608;2023-08-20T09:51:05;3.10;;;2.08;;
45540;SDS011;31265;49.680;8.608;2023-08-20T09:53:42;3.05;;;1.63;;
45540;SDS011;31265;49.680;8.608;2023-08-20T09:56:19;3.67;;;1.95;;
45540;SDS011;31265;49.680;8.608;2023-08-20T09:58:52;3.13;;;1.88;;
45540;SDS011;31265;49.680;8.608;2023-08-20T10:01:26;3.53;;;1.73;;
45540;SDS011;31265;49.680;8.608;2023-08-20T10:03:57;4.25;;;2.40;;
45540;SDS011;31265;49.680;8.608;2023-08-20T10:06:26;4.63;;;2.40;;
45540;SDS011;31265;49.680;8.608;2023-08-20T10:08:57;3.90;;;1.83;;
45540;SDS011;31265;49.680;8.608;2023-08-20T10:11:26;3.40;;;1.73;;
45540;SDS011;31265;49.680;8.608;2023-08-20T10:13:55;5.55;;;1.92;;
45540;SDS011;31265;49.680;8.608;2023-08-20T10:16:28;6.05;;;1.98;;
45540;SDS011;31265;49.680;8.608;2023-08-20T10:19:01;5.57;;;2.00;;
45540;SDS011;31265;49.680;8.608;2023-08-20T10:21:32;5.72;;;2.08;;
45540;SDS011;31265;49.680;8.608;2023-08-20T10:24:05;3.28;;;1.77;;
45540;SDS011;31265;49.680;8.608;2023-08-20T10:26:35;3.15;;;1.83;;
45540;SDS011;31265;49.680;8.608;2023-08-20T10:32:08;3.22;;;1.80;;
45540;SDS011;31265;49.680;8.608;2023-08-20T10:34:37;2.95;;;1.67;;
45540;SDS011;31265;49.680;8.608;2023-08-20T10:37:09;3.97;;;1.60;;
45540;SDS011;31265;49.680;8.608;2023-08-20T10:39:38;3.05;;;1.60;;
45540;SDS011;31265;49.680;8.608;2023-08-20T10:42:27;3.67;;;1.90;;
45540;SDS011;31265;49.680;8.608;2023-08-20T10:44:59;3.03;;;1.63;;
45540;SDS011;31265;49.680;8.608;2023-08-20T10:47:36;3.40;;;1.73;;
45540;SDS011;31265;49.680;8.608;2023-08-20T10:50:08;3.03;;;1.83;;
45540;SDS011;31265;49.680;8.608;2023-08-20T10:52:38;2.83;;;1.70;;
45540;SDS011;31265;49.680;8.608;2023-08-20T10:55:10;4.15;;;1.98;;
45540;SDS011;31265;49.680;8.608;2023-08-20T10:57:41;3.20;;;1.70;;
45540;SDS011;31265;49.680;8.608;2023-08-20T11:00:15;2.38;;;1.52;;
45540;SDS011;31265;49.680;8.608;2023-08-20T11:02:45;4.60;;;1.50;;
45540;SDS011;31265;49.680;8.608;2023-08-20T11:05:18;3.47;;;1.50;;
45540;SDS011;31265;49.680;8.608;2023-08-20T11:07:48;3.17;;;1.60;;
45540;SDS011;31265;49.680;8.608;2023-08-20T11:10:16;3.30;;;1.40;;
45540;SDS011;31265;49.680;8.608;2023-08-20T11:12:46;2.30;;;1.45;;
45540;SDS011;31265;49.680;8.608;2023-08-20T11:15:17;2.90;;;1.58;;
45540;SDS011;31265;49.680;8.608;2023-08-20T11:17:52;2.47;;;1.27;;
45540;SDS011;31265;49.680;8.608;2023-08-20T11:20:25;3.20;;;1.98;;
45540;SDS011;31265;49.680;8.608;2023-08-20T11:22:54;3.85;;;1.30;;
45540;SDS011;31265;49.680;8.608;2023-08-20T11:25:25;2.40;;;1.27;;
45540;SDS011;31265;49.680;8.608;2023-08-20T11:27:56;2.50;;;1.42;;
45540;SDS011;31265;49.680;8.608;2023-08-20T11:30:26;2.45;;;1.40;;
45540;SDS011;31265;49.680;8.608;2023-08-20T11:32:58;2.47;;;1.33;;
45540;SDS011;31265;49.680;8.608;2023-08-20T11:35:27;5.55;;;1.80;;
45540;SDS011;31265;49.680;8.608;2023-08-20T11:40:24;2.63;;;1.60;;
45540;SDS011;31265;49.680;8.608;2023-08-20T11:42:57;7.50;;;1.58;;
45540;SDS011;31265;49.680;8.608;2023-08-20T11:45:26;3.50;;;1.25;;
45540;SDS011;31265;49.680;8.608;2023-08-20T11:47:55;2.33;;;1.45;;
45540;SDS011;31265;49.680;8.608;2023-08-20T11:50:26;2.63;;;1.48;;
45540;SDS011;31265;49.680;8.608;2023-08-20T11:52:56;3.40;;;1.15;;
45540;SDS011;31265;49.680;8.608;2023-08-20T11:55:29;3.55;;;1.33;;
45540;SDS011;31265;49.680;8.608;2023-08-20T11:57:58;2.80;;;1.20;;
45540;SDS011;31265;49.680;8.608;2023-08-20T12:00:33;2.45;;;1.33;;
45540;SDS011;31265;49.680;8.608;2023-08-20T12:03:04;2.90;;;1.48;;
45540;SDS011;31265;49.680;8.608;2023-08-20T12:05:35;3.53;;;1.38;;
45540;SDS011;31265;49.680;8.608;2023-08-20T12:08:04;2.85;;;1.25;;
45540;SDS011;31265;49.680;8.608;2023-08-20T12:10:33;3.55;;;1.33;;
45540;SDS011;31265;49.680;8.608;2023-08-20T12:13:01;2.85;;;1.08;;
45540;SDS011;31265;49.680;8.608;2023-08-20T12:15:30;3.10;;;1.27;;
45540;SDS011;31265;49.680;8.608;2023-08-20T12:17:59;1.92;;;1.05;;
45540;SDS011;31265;49.680;8.608;2023-08-20T12:20:35;1.95;;;1.10;;
45540;SDS011;31265;49.680;8.608;2023-08-20T12:23:09;2.95;;;1.13;;
45540;SDS011;31265;49.680;8.608;2023-08-20T12:25:37;3.45;;;1.20;;
45540;SDS011;31265;49.680;8.608;2023-08-20T12:30:38;3.95;;;1.45;;
45540;SDS011;31265;49.680;8.608;2023-08-20T12:35:36;2.20;;;1.10;;
45540;SDS011;31265;49.680;8.608;2023-08-20T12:38:10;3.25;;;1.25;;
45540;SDS011;31265;49.680;8.608;2023-08-20T12:40:41;2.40;;;1.05;;
45540;SDS011;31265;49.680;8.608;2023-08-20T12:43:11;2.80;;;1.45;;
45540;SDS011;31265;49.680;8.608;2023-08-20T12:45:47;4.50;;;1.52;;
45540;SDS011;31265;49.680;8.608;2023-08-20T12:48:15;3.45;;;1.50;;
45540;SDS011;31265;49.680;8.608;2023-08-20T12:50:52;3.15;;;1.45;;
45540;SDS011;31265;49.680;8.608;2023-08-20T12:53:23;4.40;;;1.50;;
45540;SDS011;31265;49.680;8.608;2023-08-20T12:55:55;2.90;;;1.50;;
45540;SDS011;31265;49.680;8.608;2023-08-20T12:58:24;3.72;;;1.30;;
45540;SDS011;31265;49.680;8.608;2023-08-20T13:00:58;3.08;;;1.40;;
45540;SDS011;31265;49.680;8.608;2023-08-20T13:03:34;2.13;;;1.20;;
45540;SDS011;31265;49.680;8.608;2023-08-20T13:06:09;1.80;;;1.00;;
45540;SDS011;31265;49.680;8.608;2023-08-20T13:08:43;2.78;;;1.55;;
45540;SDS011;31265;49.680;8.608;2023-08-20T13:11:18;5.63;;;1.45;;
45540;SDS011;31265;49.680;8.608;2023-08-20T13:13:56;3.08;;;1.63;;
45540;SDS011;31265;49.680;8.608;2023-08-20T13:16:29;2.88;;;1.50;;
45540;SDS011;31265;49.680;8.608;2023-08-20T13:19:01;3.83;;;1.45;;
45540;SDS011;31265;49.680;8.608;2023-08-20T13:24:00;2.05;;;1.10;;
45540;SDS011;31265;49.680;8.608;2023-08-20T13:26:36;3.17;;;1.67;;
45540;SDS011;31265;49.680;8.608;2023-08-20T13:29:12;2.78;;;1.75;;
45540;SDS011;31265;49.680;8.608;2023-08-20T13:31:40;3.08;;;1.45;;
45540;SDS011;31265;49.680;8.608;2023-08-20T13:34:14;2.78;;;1.40;;
45540;SDS011;31265;49.680;8.608;2023-08-20T13:36:45;3.22;;;1.60;;
45540;SDS011;31265;49.680;8.608;2023-08-20T13:39:14;3.25;;;1.50;;
45540;SDS011;31265;49.680;8.608;2023-08-20T13:41:48;2.22;;;1.17;;
45540;SDS011;31265;49.680;8.608;2023-08-20T13:44:22;5.65;;;1.75;;
45540;SDS011;31265;49.680;8.608;2023-08-20T13:49:24;2.03;;;1.08;;
45540;SDS011;31265;49.680;8.608;2023-08-20T13:51:56;3.35;;;1.60;;
45540;SDS011;31265;49.680;8.608;2023-08-20T13:54:24;2.88;;;1.15;;
45540;SDS011;31265;49.680;8.608;2023-08-20T13:56:53;3.63;;;1.38;;
45540;SDS011;31265;49.680;8.608;2023-08-20T13:59:23;2.47;;;1.58;;
45540;SDS011;31265;49.680;8.608;2023-08-20T14:01:52;2.45;;;1.20;;
45540;SDS011;31265;49.680;8.608;2023-08-20T14:04:23;2.70;;;1.30;;
45540;SDS011;31265;49.680;8.608;2023-08-20T14:06:53;3.13;;;1.50;;
45540;SDS011;31265;49.680;8.608;2023-08-20T14:09:23;2.10;;;1.10;;
45540;SDS011;31265;49.680;8.608;2023-08-20T14:11:52;2.47;;;1.23;;
45540;SDS011;31265;49.680;8.608;2023-08-20T14:14:20;2.50;;;1.27;;
45540;SDS011;31265;49.680;8.608;2023-08-20T14:16:50;3.15;;;1.50;;
45540;SDS011;31265;49.680;8.608;2023-08-20T14:19:24;3.10;;;1.58;;
45540;SDS011;31265;49.680;8.608;2023-08-20T14:21:52;3.95;;;1.48;;
45540;SDS011;31265;49.680;8.608;2023-08-20T14:24:22;2.22;;;1.05;;
45540;SDS011;31265;49.680;8.608;2023-08-20T14:26:51;2.25;;;1.15;;
45540;SDS011;31265;49.680;8.608;2023-08-20T14:29:19;3.08;;;1.20;;
45540;SDS011;31265;49.680;8.608;2023-08-20T14:31:50;2.72;;;1.27;;
45540;SDS011;31265;49.680;8.608;2023-08-20T14:34:18;8.55;;;1.50;;
45540;SDS011;31265;49.680;8.608;2023-08-20T14:36:49;1.95;;;1.13;;
45540;SDS011;31265;49.680;8.608;2023-08-20T14:39:18;2.97;;;1.10;;
45540;SDS011;31265;49.680;8.608;2023-08-20T14:41:50;2.75;;;1.25;;
45540;SDS011;31265;49.680;8.608;2023-08-20T14:44:21;7.43;;;1.85;;
45540;SDS011;31265;49.680;8.608;2023-08-20T14:46:50;3.63;;;1.60;;
45540;SDS011;31265;49.680;8.608;2023-08-20T14:49:21;5.07;;;1.13;;
45540;SDS011;31265;49.680;8.608;2023-08-20T14:51:51;2.05;;;1.00;;
45540;SDS011;31265;49.680;8.608;2023-08-20T14:54:35;2.30;;;1.20;;
45540;SDS011;31265;49.680;8.608;2023-08-20T14:57:10;2.60;;;1.30;;
45540;SDS011;31265;49.680;8.608;2023-08-20T14:59:44;2.22;;;1.10;;
45540;SDS011;31265;49.680;8.608;2023-08-20T15:04:41;2.72;;;1.30;;
45540;SDS011;31265;49.680;8.608;2023-08-20T15:07:12;2.35;;;1.17;;
45540;SDS011;31265;49.680;8.608;2023-08-20T15:09:40;2.92;;;1.10;;
45540;SDS011;31265;49.680;8.608;2023-08-20T15:12:14;2.60;;;1.40;;
45540;SDS011;31265;49.680;8.608;2023-08-20T15:14:43;3.55;;;1.52;;
45540;SDS011;31265;49.680;8.608;2023-08-20T15:17:11;2.33;;;0.95;;
45540;SDS011;31265;49.680;8.608;2023-08-20T15:19:39;2.47;;;1.08;;
45540;SDS011;31265;49.680;8.608;2023-08-20T15:22:15;3.40;;;1.90;;
45540;SDS011;31265;49.680;8.608;2023-08-20T15:24:44;3.40;;;1.40;;
45540;SDS011;31265;49.680;8.608;2023-08-20T15:27:17;2.10;;;1.20;;
45540;SDS011;31265;49.680;8.608;2023-08-20T15:29:47;2.47;;;1.52;;
45540;SDS011;31265;49.680;8.608;2023-08-20T15:32:18;2.83;;;1.00;;
45540;SDS011;31265;49.680;8.608;2023-08-20T15:34:48;3.35;;;1.40;;
45540;SDS011;31265;49.680;8.608;2023-08-20T15:37:18;2.40;;;1.23;;
45540;SDS011;31265;49.680;8.608;2023-08-20T15:42:19;2.00;;;0.90;;
45540;SDS011;31265;49.680;8.608;2023-08-20T15:44:47;2.78;;;1.25;;
45540;SDS011;31265;49.680;8.608;2023-08-20T15:47:16;5.13;;;1.40;;